Terminal Aerodrome Forecast
Issued by NWS

Home | Current Version | Previous Version | Graphics & Text | Print | Product List | Glossary Off
Versions: 1 2 3 4 5 6 7 8 9 10 11 12 13 14 15 16 17 18 19 20 21 22 23 24 25 26 27 28 29 30 31 32

000
FTUS43 KLOT 250800 AAA
TAFGYY
TAF AMD
KGYY 250850Z 2509/2606 23005KT 6SM BR SCT007 SCT015
      TEMPO 2509/2512 4SM BR BKN012
     FM251500 30007KT P6SM FEW250
     FM251900 30012G19KT P6SM SCT100
     FM260000 29009KT P6SM FEW250=

USA.gov is the U.S. government's official web portal to all federal, state and local government web resources and services.